createdAt,value
2023-09-08T00:04:59.492Z,19.85
2023-09-08T00:10:00.941Z,19.74
2023-09-08T00:15:02.438Z,19.47
2023-09-08T00:20:09.529Z,19.22
2023-09-08T00:25:11.041Z,19.08
2023-09-08T00:30:12.950Z,19.00
2023-09-08T00:35:14.527Z,18.94
2023-09-08T00:40:16.200Z,18.90
2023-09-08T00:45:17.818Z,18.87
2023-09-08T00:50:19.409Z,18.87
2023-09-08T00:55:20.927Z,18.87
2023-09-08T01:00:22.404Z,18.85
2023-09-08T01:05:24.089Z,18.82
2023-09-08T01:10:25.838Z,18.80
2023-09-08T01:15:27.413Z,18.77
2023-09-08T01:20:42.695Z,18.76
2023-09-08T01:25:56.099Z,18.75
2023-09-08T01:30:58.309Z,18.75
2023-09-08T01:36:00.422Z,18.75
2023-09-08T01:41:02.798Z,18.77
2023-09-08T01:46:04.303Z,18.75
2023-09-08T01:51:15.299Z,18.72
2023-09-08T01:56:16.816Z,18.73
2023-09-08T02:01:18.366Z,18.73
2023-09-08T02:06:19.893Z,18.71
2023-09-08T02:11:21.486Z,18.67
2023-09-08T02:16:24.500Z,18.65
2023-09-08T02:21:26.423Z,18.51
2023-09-08T02:26:28.565Z,18.36
2023-09-08T02:31:30.725Z,18.31
2023-09-08T02:36:33.129Z,18.32
2023-09-08T02:41:36.062Z,18.31
2023-09-08T02:46:38.120Z,18.29
2023-09-08T02:51:39.930Z,18.28
2023-09-08T02:56:41.581Z,18.26
2023-09-08T03:01:43.649Z,18.22
2023-09-08T03:06:45.323Z,18.18
2023-09-08T03:11:48.217Z,18.13
2023-09-08T03:16:49.867Z,18.10
2023-09-08T03:21:51.466Z,18.08
2023-09-08T03:26:53.043Z,18.06
2023-09-08T03:31:54.691Z,18.05
2023-09-08T03:36:56.576Z,18.02
2023-09-08T03:41:58.125Z,17.93
2023-09-08T03:47:01.134Z,17.86
2023-09-08T03:52:04.957Z,17.82
2023-09-08T03:57:06.484Z,17.80
2023-09-08T04:02:08.029Z,17.82
2023-09-08T04:07:09.746Z,17.84
2023-09-08T04:12:12.193Z,17.88
2023-09-08T04:17:13.779Z,17.87
2023-09-08T04:22:15.322Z,17.83
2023-09-08T04:27:16.824Z,17.77
2023-09-08T04:32:18.419Z,17.72
2023-09-08T04:37:19.939Z,17.68
2023-09-08T04:42:21.480Z,17.64
2023-09-08T04:47:23.056Z,17.59
2023-09-08T04:52:24.604Z,17.53
2023-09-08T04:57:26.225Z,17.45
2023-09-08T05:02:32.566Z,17.38
2023-09-08T05:07:34.252Z,17.32
2023-09-08T05:12:36.116Z,17.27
2023-09-08T05:17:38.172Z,17.26
2023-09-08T05:22:40.136Z,17.29
2023-09-08T05:27:42.640Z,17.36
2023-09-08T05:32:44.486Z,17.42
2023-09-08T05:37:46.443Z,17.51
2023-09-08T05:42:48.021Z,17.63
2023-09-08T05:47:51.828Z,17.78
2023-09-08T05:52:54.072Z,17.93
2023-09-08T05:57:55.819Z,18.09
2023-09-08T06:02:57.926Z,18.23
2023-09-08T06:08:07.059Z,18.38
2023-09-08T06:13:11.725Z,18.52
2023-09-08T06:18:16.115Z,18.65
2023-09-08T06:23:20.858Z,18.77
2023-09-08T06:28:23.540Z,18.89
2023-09-08T06:33:25.339Z,19.02
2023-09-08T06:38:27.115Z,19.13
2023-09-08T06:43:28.838Z,19.24
2023-09-08T06:48:39.050Z,19.35
2023-09-08T06:53:41.058Z,19.48
2023-09-08T06:58:42.697Z,19.61
2023-09-08T07:03:44.589Z,19.72
2023-09-08T07:08:46.548Z,19.81
2023-09-08T07:13:48.195Z,19.90
2023-09-08T07:18:51.029Z,20.02
2023-09-08T07:23:52.827Z,20.13
2023-09-08T07:28:54.436Z,20.24
2023-09-08T07:33:56.272Z,20.38
2023-09-08T07:38:57.899Z,20.50
2023-09-08T07:43:59.639Z,20.62
2023-09-08T07:49:02.097Z,20.73
2023-09-08T07:54:05.372Z,20.88
2023-09-08T07:59:06.971Z,20.97
2023-09-08T08:04:08.889Z,21.07
2023-09-08T08:09:11.316Z,21.20
2023-09-08T08:14:12.881Z,21.31
2023-09-08T08:19:14.420Z,21.43
2023-09-08T08:24:16.116Z,21.55
2023-09-08T08:29:17.650Z,21.67
2023-09-08T08:34:19.146Z,21.79
2023-09-08T08:39:20.773Z,21.90
2023-09-08T08:44:23.641Z,22.02
2023-09-08T08:49:25.450Z,22.14
2023-09-08T08:54:27.132Z,22.28
2023-09-08T08:59:29.186Z,22.37
2023-09-08T09:04:31.140Z,22.48
2023-09-08T09:09:32.829Z,22.62
2023-09-08T09:14:35.007Z,22.80
2023-09-08T09:19:38.223Z,22.93
2023-09-08T09:24:45.071Z,23.00
2023-09-08T09:29:49.770Z,23.11
2023-09-08T09:34:57.592Z,23.32
2023-09-08T09:40:01.355Z,23.57
2023-09-08T09:45:04.557Z,23.74
2023-09-08T09:50:06.684Z,23.88
2023-09-08T09:55:09.297Z,24.04
2023-09-08T10:00:11.480Z,24.15
2023-09-08T10:05:14.828Z,24.30
2023-09-08T10:10:17.502Z,24.40
2023-09-08T10:15:23.349Z,24.55
2023-09-08T10:20:25.915Z,24.70
2023-09-08T10:25:30.750Z,24.79
2023-09-08T10:30:33.398Z,24.89
2023-09-08T10:35:35.719Z,24.97
2023-09-08T10:40:37.712Z,25.07
2023-09-08T10:45:42.385Z,25.15
2023-09-08T10:50:44.090Z,25.28
2023-09-08T10:56:10.685Z,25.38
2023-09-08T11:01:17.988Z,25.40
2023-09-08T11:06:23.063Z,25.47
2023-09-08T11:11:24.656Z,25.54
2023-09-08T11:16:30.694Z,25.56
2023-09-08T11:21:35.893Z,25.61
2023-09-08T11:26:38.630Z,25.65
2023-09-08T11:31:40.250Z,25.71
2023-09-08T11:36:41.851Z,25.85
2023-09-08T11:41:43.409Z,25.93
2023-09-08T11:46:45.447Z,25.99
2023-09-08T11:51:47.000Z,26.07
2023-09-08T11:56:48.812Z,26.17
2023-09-08T12:01:50.427Z,26.22
2023-09-08T12:06:56.959Z,26.28
2023-09-08T12:12:03.937Z,26.36
2023-09-08T12:17:08.939Z,26.42
2023-09-08T12:22:13.932Z,26.47
2023-09-08T12:27:17.199Z,26.55
2023-09-08T12:32:18.885Z,26.61
2023-09-08T12:37:22.277Z,26.68
2023-09-08T12:42:27.097Z,26.74
2023-09-08T12:47:29.223Z,26.82
2023-09-08T12:52:32.686Z,26.88
2023-09-08T12:57:35.016Z,26.92
2023-09-08T13:02:36.854Z,26.95
2023-09-08T13:07:38.548Z,27.01
2023-09-08T13:12:40.182Z,27.03
2023-09-08T13:17:41.732Z,27.08
2023-09-08T13:22:43.563Z,27.12
2023-09-08T13:27:45.127Z,27.39
2023-09-08T13:32:46.835Z,28.00
2023-09-08T13:37:48.396Z,28.00
2023-09-08T13:42:49.937Z,27.85
2023-09-08T13:47:51.531Z,27.72
2023-09-08T13:52:55.448Z,27.68
2023-09-08T13:58:00.280Z,27.61
2023-09-08T14:03:06.312Z,27.62
2023-09-08T14:08:17.354Z,27.63
2023-09-08T14:13:24.652Z,27.61
2023-09-08T14:18:26.155Z,27.60
2023-09-08T14:23:27.645Z,27.55
2023-09-08T14:28:29.183Z,27.52
2023-09-08T14:33:30.944Z,27.50
2023-09-08T14:38:32.441Z,27.46
2023-09-08T14:43:34.166Z,27.43
2023-09-08T14:48:37.441Z,27.38
2023-09-08T14:53:39.261Z,27.38
2023-09-08T14:58:41.235Z,27.36
2023-09-08T15:03:42.903Z,27.36
2023-09-08T15:08:46.634Z,27.51
2023-09-08T15:13:48.150Z,28.19
2023-09-08T15:18:50.982Z,28.16
2023-09-08T15:23:52.675Z,28.24
2023-09-08T15:28:54.250Z,28.07
2023-09-08T15:33:55.836Z,27.97
2023-09-08T15:38:57.546Z,27.92
2023-09-08T15:43:59.108Z,27.70
2023-09-08T15:49:00.723Z,27.49
2023-09-08T15:54:02.330Z,27.32
2023-09-08T15:59:04.512Z,27.19
2023-09-08T16:04:10.401Z,27.05
2023-09-08T16:09:11.984Z,26.93
2023-09-08T16:14:13.523Z,26.82
2023-09-08T16:19:14.955Z,26.75
2023-09-08T16:24:16.436Z,26.65
2023-09-08T16:29:17.921Z,26.54
2023-09-08T16:34:19.434Z,26.44
2023-09-08T16:39:21.113Z,26.33
2023-09-08T16:44:22.624Z,26.21
2023-09-08T16:49:24.162Z,26.09
2023-09-08T16:54:25.737Z,25.98
2023-09-08T16:59:27.419Z,25.84
2023-09-08T17:04:28.987Z,25.71
2023-09-08T17:09:30.980Z,25.59
2023-09-08T17:14:32.495Z,25.42
2023-09-08T17:19:34.004Z,25.22
2023-09-08T17:24:35.531Z,25.06
2023-09-08T17:29:37.019Z,24.88
2023-09-08T17:34:38.463Z,24.69
2023-09-08T17:39:40.065Z,24.52
2023-09-08T17:44:41.591Z,24.39
2023-09-08T17:49:43.748Z,24.26
2023-09-08T17:54:45.240Z,24.11
2023-09-08T17:59:46.636Z,24.05
2023-09-08T18:04:48.189Z,24.01
2023-09-08T18:09:49.581Z,23.95
2023-09-08T18:14:56.987Z,23.88
2023-09-08T18:19:59.204Z,23.80
2023-09-08T18:25:01.630Z,23.74
2023-09-08T18:30:03.530Z,23.68
2023-09-08T18:35:05.600Z,23.63
2023-09-08T18:40:10.860Z,23.57
2023-09-08T18:45:13.013Z,23.50
2023-09-08T18:50:14.392Z,23.46
2023-09-08T18:55:16.278Z,23.42
2023-09-08T19:00:18.269Z,23.37
2023-09-08T19:05:19.925Z,23.23
2023-09-08T19:10:21.597Z,23.06
2023-09-08T19:15:23.004Z,22.93
2023-09-08T19:20:24.575Z,22.81
2023-09-08T19:25:26.155Z,22.71
2023-09-08T19:30:27.650Z,22.60
2023-09-08T19:35:29.237Z,22.50
2023-09-08T19:40:31.401Z,22.42
2023-09-08T19:45:33.037Z,22.33
2023-09-08T19:50:34.548Z,22.25
2023-09-08T19:55:36.129Z,22.16
2023-09-08T20:00:37.755Z,22.07
2023-09-08T20:05:45.606Z,21.99
2023-09-08T20:16:02.828Z,21.82
2023-09-08T20:21:06.238Z,21.76
2023-09-08T20:26:07.846Z,21.71
2023-09-08T20:31:15.676Z,21.65
2023-09-08T20:36:18.094Z,21.59
2023-09-08T20:41:19.641Z,21.54
2023-09-08T20:46:21.161Z,21.44
2023-09-08T20:51:23.694Z,21.37
2023-09-08T20:56:25.321Z,21.29
2023-09-08T21:01:28.105Z,21.21
2023-09-08T21:06:29.742Z,21.15
2023-09-08T21:11:32.943Z,21.07
2023-09-08T21:16:34.552Z,20.98
2023-09-08T21:21:36.152Z,20.89
2023-09-08T21:26:37.777Z,20.83
2023-09-08T21:31:39.537Z,20.75
2023-09-08T21:36:41.108Z,20.67
2023-09-08T21:41:42.572Z,20.61
2023-09-08T21:46:44.144Z,20.55
2023-09-08T21:51:50.627Z,20.49
2023-09-08T21:56:52.917Z,20.44
2023-09-08T22:01:54.411Z,20.39
2023-09-08T22:06:55.986Z,20.35
2023-09-08T22:11:57.692Z,20.32
2023-09-08T22:16:59.186Z,20.27
2023-09-08T22:22:00.693Z,20.21
2023-09-08T22:27:04.809Z,20.14
2023-09-08T22:32:06.730Z,20.07
2023-09-08T22:37:08.614Z,20.01
2023-09-08T22:42:10.091Z,19.93
2023-09-08T22:47:11.764Z,19.86
2023-09-08T22:52:13.271Z,19.80
2023-09-08T22:57:14.763Z,19.77
2023-09-08T23:02:16.298Z,19.79
2023-09-08T23:07:17.861Z,19.81
2023-09-08T23:12:19.362Z,19.87
2023-09-08T23:17:20.876Z,19.96
2023-09-08T23:22:22.733Z,20.00
2023-09-08T23:27:24.305Z,20.03
2023-09-08T23:32:25.941Z,20.05
2023-09-08T23:37:27.598Z,20.05
2023-09-08T23:42:29.100Z,20.06
2023-09-08T23:47:30.658Z,20.06
2023-09-08T23:52:32.134Z,20.02
2023-09-08T23:57:33.704Z,19.97
